Itatinga, Brazil
Current Conditions -  °F | °C
As of 9:00 AM on Thursday 18 Dec 2014 (Local Time) from SBBU Reporting Station
Clear Clear  
Wind Chill: 79°   Ceiling: Unl
Heat Index: 82°   Visibility: 6mi
Dew Point: 72°   Wind: 7mph
Humidity: 78%   Direction: 120°ESE
Pressure: 29.88"   Gusts: NA
Location:  23.1°S, 48.62°W
Report Text: SBBU 181100Z 12006KT CAVOK 26/22 Q1012
Loading
Personal Weather Stations






























Interactive Weather Map New forecast layout! Learn more

10-Day Weather Forecast

Advertisements
Track Severe Weather on mobile